Time;durP1;ratioP1;P1;durP2;ratioP2;P2;SDS_P1;SDS_P2;PMS_P1;PMS_P2;Temp;Humidity;BMP_temperature;BMP_pressure;BME280_temperature;BME280_humidity;BME280_pressure;Samples;Min_cycle;Max_cycle;Signal;HPM_P1;HPM_P2
2022/08/11 00:00:37;;;;;;;1999.90;999.90;;;;;;;17.61;100.00;95676.03;5099950;28;20187;-69
2022/08/11 00:03:10;;;;;;;1999.90;999.90;;;;;;;17.57;100.00;95680.91;5099247;28;20191;-69
2022/08/11 00:05:53;;;;;;;1999.90;999.90;;;;;;;17.52;100.00;95664.84;5099626;28;20178;-69
2022/08/11 00:08:27;;;;;;;1999.90;999.90;;;;;;;17.45;100.00;95667.06;5099350;28;20184;-70
2022/08/11 00:11:07;;;;;;;1999.90;999.90;;;;;;;17.43;100.00;95667.50;5099762;28;20195;-61
2022/08/11 00:13:35;;;;;;;1999.90;999.90;;;;;;;17.40;100.00;95664.81;5099296;28;20200;-60
2022/08/11 00:16:04;;;;;;;1999.90;999.90;;;;;;;17.31;100.00;95664.69;5099027;28;20186;-61
2022/08/11 00:18:40;;;;;;;1999.90;999.90;;;;;;;17.27;100.00;95667.59;5115871;28;20206;-61
2022/08/11 00:21:06;;;;;;;1999.90;999.90;;;;;;;17.25;100.00;95666.44;5099034;28;20206;-62
2022/08/11 00:23:32;;;;;;;1999.90;999.90;;;;;;;17.24;100.00;95656.63;5098867;28;20184;-61
2022/08/11 00:25:58;;;;;;;1999.90;999.90;;;;;;;17.16;100.00;95671.84;5098629;28;20179;-61
2022/08/11 00:28:30;;;;;;;1999.90;999.90;;;;;;;17.12;100.00;95665.66;5099068;28;20260;-62
2022/08/11 00:30:58;;;;;;;1999.90;999.90;;;;;;;17.08;100.00;95667.75;5116978;28;20168;-59
2022/08/11 00:33:31;;;;;;;1999.90;999.90;;;;;;;17.00;100.00;95658.16;5098660;28;20188;-59
2022/08/11 00:35:58;;;;;;;1999.90;999.90;;;;;;;16.97;100.00;95662.53;5099088;28;20264;-59
2022/08/11 00:38:28;;;;;;;1999.90;999.90;;;;;;;16.97;100.00;95665.28;5115654;28;20188;-59
2022/08/11 00:41:15;;;;;;;1999.90;999.90;;;;;;;16.94;100.00;95663.44;5098473;28;20189;-59
2022/08/11 00:43:56;;;;;;;1999.90;999.90;;;;;;;16.91;100.00;95661.53;5099312;28;20182;-59
2022/08/11 00:46:24;;;;;;;1999.90;999.90;;;;;;;16.85;100.00;95656.97;5098506;28;20187;-61
2022/08/11 00:49:17;;;;;;;1999.90;999.90;;;;;;;16.79;100.00;95658.75;5098565;28;20180;-63
2022/08/11 00:52:04;;;;;;;1999.90;999.90;;;;;;;16.73;100.00;95646.69;5098853;28;20277;-67
2022/08/11 00:54:55;;;;;;;1999.90;999.90;;;;;;;16.67;100.00;95648.44;5098947;28;20171;-65
2022/08/11 00:57:45;;;;;;;1999.90;999.90;;;;;;;16.60;100.00;95645.88;5075573;28;20199;-67
2022/08/11 01:00:22;;;;;;;1999.90;999.90;;;;;;;16.58;100.00;95642.75;5098613;28;20214;-67
2022/08/11 01:03:12;;;;;;;1999.90;999.90;;;;;;;16.54;100.00;95642.09;5098594;28;20218;-66
2022/08/11 01:06:13;;;;;;;1999.90;999.90;;;;;;;16.47;100.00;95632.03;5098780;28;20240;-62
2022/08/11 01:09:00;;;;;;;1999.90;999.90;;;;;;;16.42;100.00;95630.56;5087442;28;20223;-66
2022/08/11 01:11:40;;;;;;;1999.90;999.90;;;;;;;16.34;100.00;95626.44;5098288;28;20184;-66
2022/08/11 01:14:24;;;;;;;1999.90;999.90;;;;;;;16.32;100.00;95626.09;5098709;28;20187;-67
2022/08/11 01:16:56;;;;;;;1999.90;999.90;;;;;;;16.26;100.00;95622.31;5116030;28;20188;-67
2022/08/11 01:19:38;;;;;;;1999.90;999.90;;;;;;;16.29;100.00;95612.41;5098704;28;20219;-68
2022/08/11 01:22:42;;;;;;;1999.90;999.90;;;;;;;16.25;100.00;95609.72;5098256;28;20290;-67
2022/08/11 01:25:32;;;;;;;1999.90;999.90;;;;;;;16.21;100.00;95613.81;5098397;28;20195;-69
2022/08/11 01:28:07;;;;;;;1999.90;999.90;;;;;;;16.16;100.00;95617.84;5098646;28;20188;-68
2022/08/11 01:31:11;;;;;;;1999.90;999.90;;;;;;;16.09;100.00;95618.03;5098016;28;20275;-69
2022/08/11 01:34:03;;;;;;;1999.90;999.90;;;;;;;16.06;100.00;95607.88;5067849;28;20207;-71
2022/08/11 01:36:41;;;;;;;1999.90;999.90;;;;;;;16.00;100.00;95604.09;5098590;28;20204;-71
2022/08/11 01:39:36;;;;;;;1999.90;999.90;;;;;;;15.97;100.00;95604.97;5097908;28;20201;-70
2022/08/11 01:45:10;;;;;;;1999.90;999.90;;;;;;;15.92;100.00;95594.47;5115653;28;20241;-68
2022/08/11 01:47:51;;;;;;;1999.90;999.90;;;;;;;15.88;100.00;95585.53;5097597;28;20203;-67
2022/08/11 01:50:56;;;;;;;1999.90;999.90;;;;;;;15.84;100.00;95579.31;5097301;28;20244;-66
2022/08/11 01:53:27;;;;;;;1999.90;999.90;;;;;;;15.78;100.00;95575.53;5075064;28;20287;-68
2022/08/11 01:56:05;;;;;;;1999.90;999.90;;;;;;;15.73;100.00;95572.53;5097349;28;20188;-67
2022/08/11 01:58:57;;;;;;;1999.90;999.90;;;;;;;15.70;100.00;95562.41;5115437;28;20187;-67
2022/08/11 02:01:43;;;;;;;1999.90;999.90;;;;;;;15.68;100.00;95560.09;5097896;28;20216;-65
2022/08/11 02:04:27;;;;;;;1999.90;999.90;;;;;;;15.71;100.00;95556.47;5097317;28;20199;-66
2022/08/11 02:06:57;;;;;;;1999.90;999.90;;;;;;;15.67;100.00;95546.75;5097756;28;20278;-68
2022/08/11 02:09:28;;;;;;;1999.90;999.90;;;;;;;15.64;100.00;95548.38;5097087;28;20211;-67
2022/08/11 02:12:02;;;;;;;1999.90;999.90;;;;;;;15.63;100.00;95554.31;5097295;28;20192;-67
2022/08/11 02:14:33;;;;;;;1999.90;999.90;;;;;;;15.59;100.00;95542.63;5097013;28;20224;-66
2022/08/11 02:17:17;;;;;;;1999.90;999.90;;;;;;;15.57;100.00;95543.06;5097384;28;20187;-66
2022/08/11 02:25:28;;;;;;;1999.90;999.90;;;;;;;15.55;100.00;95545.44;5115290;28;20187;-64
2022/08/11 02:28:08;;;;;;;1999.90;999.90;;;;;;;15.54;100.00;95541.16;5096891;28;20209;-64
2022/08/11 02:33:21;;;;;;;1999.90;999.90;;;;;;;15.58;100.00;95539.09;5097470;28;20200;-63
2022/08/11 02:33:34;;;;;;;1999.90;999.90;;;;;;;15.56;100.00;95538.72;5114625;28;20275;-63
2022/08/11 02:36:09;;;;;;;1999.90;999.90;;;;;;;15.57;100.00;95534.78;5096729;28;20180;-61
2022/08/11 02:39:04;;;;;;;1999.90;999.90;;;;;;;15.55;100.00;95528.94;5097273;28;20266;-65
2022/08/11 02:42:23;;;;;;;1999.90;999.90;;;;;;;15.54;100.00;95532.91;5093976;28;20235;-66
2022/08/11 02:45:10;;;;;;;1999.90;999.90;;;;;;;15.50;100.00;95534.97;5094079;28;20231;-64
2022/08/11 02:50:39;;;;;;;1999.90;999.90;;;;;;;15.44;100.00;95528.44;5115582;28;20175;-64
2022/08/11 02:53:36;;;;;;;1999.90;999.90;;;;;;;15.38;100.00;95519.16;5096724;28;20213;-64
2022/08/11 02:56:21;;;;;;;1999.90;999.90;;;;;;;15.39;100.00;95525.41;5097049;28;20283;-62
2022/08/11 03:02:13;;;;;;;1999.90;999.90;;;;;;;15.29;100.00;95515.41;5114575;28;20198;-70
2022/08/11 03:04:59;;;;;;;1999.90;999.90;;;;;;;15.25;100.00;95514.72;5097074;28;20286;-69
2022/08/11 03:07:59;;;;;;;1999.90;999.90;;;;;;;15.22;100.00;95519.09;5096360;28;20188;-69
2022/08/11 03:10:28;;;;;;;1999.90;999.90;;;;;;;15.21;100.00;95520.31;5096362;28;20208;-69
2022/08/11 03:16:44;;;;;;;1999.90;999.90;;;;;;;15.13;100.00;95510.69;5114268;28;20230;-61
2022/08/11 03:19:28;;;;;;;1999.90;999.90;;;;;;;15.11;100.00;95499.34;5095474;28;20188;-70
2022/08/11 03:22:04;;;;;;;1999.90;999.90;;;;;;;15.10;100.00;95497.78;5114135;28;20200;-71
2022/08/11 03:25:10;;;;;;;1999.90;999.90;;;;;;;15.05;100.00;95486.53;5098612;28;20179;-71
2022/08/11 03:27:38;;;;;;;1999.90;999.90;;;;;;;15.02;100.00;95484.63;5088165;28;20282;-70
2022/08/11 03:30:28;;;;;;;1999.90;999.90;;;;;;;15.01;100.00;95486.59;5099821;28;20180;-69
2022/08/11 03:36:35;;;;;;;1999.90;999.90;;;;;;;15.00;100.00;95476.81;5117572;28;20186;-62
2022/08/11 03:39:04;;;;;;;1999.90;999.90;;;;;;;14.99;100.00;95472.50;5099619;28;20202;-62
2022/08/11 03:41:56;;;;;;;1999.90;999.90;;;;;;;14.95;100.00;95471.84;5099500;28;20231;-62
2022/08/11 03:44:46;;;;;;;1999.90;999.90;;;;;;;14.95;100.00;95468.28;5099313;28;20240;-62
2022/08/11 03:47:47;;;;;;;1999.90;999.90;;;;;;;14.90;100.00;95461.31;5100238;28;20187;-63
2022/08/11 03:50:54;;;;;;;1999.90;999.90;;;;;;;14.86;100.00;95468.13;5099552;28;20217;-62
2022/08/11 03:53:52;;;;;;;1999.90;999.90;;;;;;;14.85;100.00;95453.59;5099801;28;20200;-65
2022/08/11 03:56:39;;;;;;;1999.90;999.90;;;;;;;14.78;100.00;95442.75;5099042;28;20202;-64
2022/08/11 03:59:29;;;;;;;1999.90;999.90;;;;;;;14.77;100.00;95438.47;5099546;28;20187;-65
2022/08/11 04:01:54;;;;;;;1999.90;999.90;;;;;;;14.77;100.00;95435.72;5099211;28;20212;-64
2022/08/11 04:04:57;;;;;;;1999.90;999.90;;;;;;;14.72;100.00;95433.47;5099471;28;20199;-63
2022/08/11 04:07:42;;;;;;;1999.90;999.90;;;;;;;14.68;100.00;95432.78;5099219;28;20187;-65
2022/08/11 04:10:25;;;;;;;1999.90;999.90;;;;;;;14.69;100.00;95422.56;5099159;28;20203;-62
2022/08/11 04:13:01;;;;;;;1999.90;999.90;;;;;;;14.70;100.00;95424.91;5098901;28;20203;-65
2022/08/11 04:16:01;;;;;;;1999.90;999.90;;;;;;;14.76;100.00;95423.19;5099237;28;20219;-65
2022/08/11 04:18:57;;;;;;;1999.90;999.90;;;;;;;14.86;100.00;95427.63;5099527;28;20191;-65
2022/08/11 04:21:56;;;;;;;1999.90;999.90;;;;;;;14.92;100.00;95431.44;5098762;28;20214;-65
2022/08/11 04:24:40;;;;;;;1999.90;999.90;;;;;;;14.91;100.00;95435.41;5095373;28;20191;-66
2022/08/11 04:27:42;;;;;;;1999.90;999.90;;;;;;;14.91;100.00;95429.91;5098746;28;20183;-68
2022/08/11 04:30:13;;;;;;;1999.90;999.90;;;;;;;14.93;100.00;95432.97;5099210;28;20214;-66
2022/08/11 04:32:57;;;;;;;1999.90;999.90;;;;;;;14.94;100.00;95442.75;5098652;28;20188;-65
2022/08/11 04:35:44;;;;;;;1999.90;999.90;;;;;;;14.96;100.00;95437.63;5098034;28;20274;-67
2022/08/11 04:38:32;;;;;;;1999.90;999.90;;;;;;;14.94;100.00;95431.75;5099008;28;20211;-66
2022/08/11 04:43:19;;;;;;;1999.90;999.90;;;;;;;14.98;100.00;95429.72;5098269;28;20245;-64
2022/08/11 04:44:50;;;;;;;1999.90;999.90;;;;;;;15.05;100.00;95431.53;5116428;28;20184;-66
2022/08/11 05:02:35;;;;;;;1999.90;999.90;;;;;;;17.42;100.00;95555.50;5116240;28;20268;-63
2022/08/11 05:05:35;;;;;;;1999.90;999.90;;;;;;;18.48;100.00;95594.97;5098157;28;20641;-64
2022/08/11 05:08:27;;;;;;;1999.90;999.90;;;;;;;19.74;100.00;95639.25;5097796;28;20200;-68
2022/08/11 05:11:34;;;;;;;1999.90;999.90;;;;;;;20.36;100.00;95656.56;5098350;28;20245;-66
2022/08/11 05:34:48;;;;;;;1999.90;999.90;;;;;;;22.22;91.13;95702.47;5116320;28;20232;-56
2022/08/11 05:37:29;;;;;;;1999.90;999.90;;;;;;;23.34;86.08;95703.63;5098030;28;20184;-51
2022/08/11 05:57:04;;;;;;;1999.90;999.90;;;;;;;24.83;72.38;95720.78;5115841;28;20239;-61
2022/08/11 05:59:31;;;;;;;1999.90;999.90;;;;;;;25.45;72.46;95709.13;5097096;28;20275;-64
2022/08/11 06:02:02;;;;;;;1999.90;999.90;;;;;;;25.82;68.74;95715.59;5096822;28;20204;-64
2022/08/11 06:04:28;;;;;;;1999.90;999.90;;;;;;;25.10;68.63;95712.75;5097347;28;20184;-63
2022/08/11 06:07:05;;;;;;;1999.90;999.90;;;;;;;25.61;69.32;95712.09;5097310;28;20323;-67
2022/08/11 06:09:33;;;;;;;1999.90;999.90;;;;;;;26.40;66.36;95710.22;5097385;28;20203;-66
2022/08/11 06:12:03;;;;;;;1999.90;999.90;;;;;;;25.54;69.77;95712.53;5096968;28;20192;-67
2022/08/11 06:14:29;;;;;;;1999.90;999.90;;;;;;;26.09;67.03;95715.88;5114047;28;20188;-70
2022/08/11 06:17:00;;;;;;;1999.90;999.90;;;;;;;25.80;68.37;95712.50;5096989;28;20235;-63
2022/08/11 06:19:34;;;;;;;1999.90;999.90;;;;;;;24.91;70.84;95711.50;5097379;28;20211;-72
2022/08/11 06:22:02;;;;;;;1999.90;999.90;;;;;;;26.16;66.25;95704.22;5097048;28;20240;-61
2022/08/11 06:24:31;;;;;;;1999.90;999.90;;;;;;;27.12;61.30;95711.44;5097054;28;20196;-62
2022/08/11 06:26:57;;;;;;;1999.90;999.90;;;;;;;27.72;60.50;95705.25;5097301;28;20187;-61
2022/08/11 06:29:24;;;;;;;1999.90;999.90;;;;;;;26.11;65.78;95718.94;5096772;28;20187;-60
2022/08/11 06:31:54;;;;;;;1999.90;999.90;;;;;;;25.65;65.72;95721.03;5114574;28;20255;-61
2022/08/11 06:34:39;;;;;;;1999.90;999.90;;;;;;;25.13;68.39;95728.56;5096626;28;20186;-62
2022/08/11 06:37:27;;;;;;;1999.90;999.90;;;;;;;26.71;61.71;95717.84;5096670;28;20187;-62
2022/08/11 06:40:20;;;;;;;1999.90;999.90;;;;;;;26.57;61.41;95710.34;5097201;28;20184;-73
2022/08/11 06:42:52;;;;;;;1999.90;999.90;;;;;;;27.61;57.54;95715.72;5097098;28;20219;-74
2022/08/11 06:45:47;;;;;;;1999.90;999.90;;;;;;;27.25;56.71;95723.00;5096480;28;20180;-72
2022/08/11 06:48:18;;;;;;;1999.90;999.90;;;;;;;27.39;58.76;95724.81;5096429;28;20187;-72
2022/08/11 06:53:35;;;;;;;1999.90;999.90;;;;;;;27.95;55.06;95723.72;5114704;28;20199;-63
2022/08/11 07:01:45;;;;;;;1999.90;999.90;;;;;;;25.61;62.99;95728.09;5114796;28;20213;-63
2022/08/11 07:04:15;;;;;;;1999.90;999.90;;;;;;;27.66;56.07;95729.00;5096254;28;20187;-64
2022/08/11 07:15:42;;;;;;;1999.90;999.90;;;;;;;26.69;58.19;95721.16;5114752;28;20198;-62
2022/08/11 07:30:01;;;;;;;1999.90;999.90;;;;;;;27.97;52.88;95723.97;5114205;28;20247;-63
2022/08/11 07:32:33;;;;;;;1999.90;999.90;;;;;;;27.35;56.96;95710.28;5095667;28;20188;-65
2022/08/11 07:35:08;;;;;;;1999.90;999.90;;;;;;;27.55;55.19;95714.94;5095786;28;20187;-73
2022/08/11 07:37:34;;;;;;;1999.90;999.90;;;;;;;27.61;53.33;95713.66;5096195;28;20174;-67
2022/08/11 07:40:03;;;;;;;1999.90;999.90;;;;;;;28.92;50.86;95713.44;5095688;28;20268;-78
2022/08/11 07:42:34;;;;;;;1999.90;999.90;;;;;;;29.53;47.59;95722.44;5095229;28;20215;-68
2022/08/11 07:53:23;;;;;;;1999.90;999.90;;;;;;;26.98;56.46;95712.41;5113994;28;20202;-75
2022/08/11 07:55:49;;;;;;;1999.90;999.90;;;;;;;27.54;56.57;95728.19;5095682;28;20225;-71
2022/08/11 08:17:51;;;;;;;1999.90;999.90;;;;;;;28.89;51.22;95697.59;5117276;28;20285;-63
2022/08/11 08:20:23;;;;;;;1999.90;999.90;;;;;;;28.77;51.85;95701.72;5099053;28;20175;-63
2022/08/11 08:22:55;;;;;;;1999.90;999.90;;;;;;;31.26;46.05;95712.84;5099138;28;20200;-63
2022/08/11 08:25:30;;;;;;;1999.90;999.90;;;;;;;31.63;43.72;95702.34;5098281;28;20188;-73
2022/08/11 08:27:57;;;;;;;1999.90;999.90;;;;;;;29.17;49.17;95707.47;5098726;28;20191;-63
2022/08/11 08:30:46;;;;;;;1999.90;999.90;;;;;;;30.13;48.97;95707.22;5098497;28;20184;-69
2022/08/11 08:33:13;;;;;;;1999.90;999.90;;;;;;;30.99;46.14;95700.56;5098940;28;20216;-69
2022/08/11 08:35:41;;;;;;;1999.90;999.90;;;;;;;31.16;45.52;95706.75;5098282;28;20184;-71
2022/08/11 08:38:06;;;;;;;1999.90;999.90;;;;;;;31.34;43.51;95706.06;5098388;28;20268;-71
2022/08/11 08:40:32;;;;;;;1999.90;999.90;;;;;;;32.14;41.35;95709.59;5098071;28;20176;-69
2022/08/11 08:43:03;;;;;;;1999.90;999.90;;;;;;;33.01;40.98;95698.06;5098202;28;20237;-70
2022/08/11 08:45:34;;;;;;;1999.90;999.90;;;;;;;30.73;43.73;95708.78;5098718;28;20187;-59
2022/08/11 08:48:03;;;;;;;1999.90;999.90;;;;;;;30.32;45.04;95703.25;5116242;28;20187;-67
2022/08/11 08:53:23;;;;;;;1999.90;999.90;;;;;;;31.73;41.51;95702.72;5116596;28;20206;-66
2022/08/11 08:55:50;;;;;;;1999.90;999.90;;;;;;;30.52;43.98;95716.16;5098751;28;20183;-69
2022/08/11 08:58:19;;;;;;;1999.90;999.90;;;;;;;32.14;41.05;95711.63;5098491;28;20192;-66
2022/08/11 09:00:49;;;;;;;1999.90;999.90;;;;;;;29.70;46.68;95709.03;5097989;28;20178;-70
2022/08/11 09:03:15;;;;;;;1999.90;999.90;;;;;;;30.21;44.22;95708.19;5098035;28;20268;-59
2022/08/11 09:05:41;;;;;;;1999.90;999.90;;;;;;;30.43;45.72;95708.00;5115559;28;20210;-64
2022/08/11 09:08:07;;;;;;;1999.90;999.90;;;;;;;30.68;44.90;95701.09;5098147;28;20184;-67
2022/08/11 09:10:34;;;;;;;1999.90;999.90;;;;;;;29.62;47.09;95696.81;5097942;28;20299;-66
2022/08/11 09:13:01;;;;;;;1999.90;999.90;;;;;;;29.87;46.85;95701.25;5098170;28;20198;-69
2022/08/11 09:15:27;;;;;;;1999.90;999.90;;;;;;;30.17;45.68;95704.91;5098243;28;20202;-68
2022/08/11 09:18:02;;;;;;;1999.90;999.90;;;;;;;29.87;46.10;95706.91;5098041;28;20179;-63
2022/08/11 09:20:33;;;;;;;1999.90;999.90;;;;;;;30.35;45.72;95696.56;5097915;28;20188;-62
2022/08/11 09:28:35;;;;;;;1999.90;999.90;;;;;;;29.79;46.28;95715.13;5116390;28;20202;-61
2022/08/11 09:31:02;;;;;;;1999.90;999.90;;;;;;;30.08;45.27;95705.22;5097658;28;20200;-61
2022/08/11 09:33:29;;;;;;;1999.90;999.90;;;;;;;30.26;45.76;95704.59;5098103;28;20180;-61
2022/08/11 09:35:56;;;;;;;1999.90;999.90;;;;;;;30.10;45.37;95709.03;5098245;28;20184;-61
2022/08/11 09:41:10;;;;;;;1999.90;999.90;;;;;;;32.08;41.18;95700.41;5116011;28;20194;-64
2022/08/11 09:46:27;;;;;;;1999.90;999.90;;;;;;;31.66;41.30;95715.41;5115973;28;20186;-70
2022/08/11 09:48:57;;;;;;;1999.90;999.90;;;;;;;30.20;44.09;95712.31;5097405;28;20172;-68
2022/08/11 09:51:24;;;;;;;1999.90;999.90;;;;;;;29.98;45.22;95710.41;5097968;28;20172;-69
2022/08/11 09:53:50;;;;;;;1999.90;999.90;;;;;;;30.20;43.60;95707.44;5097491;28;20201;-74
2022/08/11 09:59:03;;;;;;;1999.90;999.90;;;;;;;28.76;46.45;95706.56;5116001;28;20194;-65
2022/08/11 10:01:39;;;;;;;1999.90;999.90;;;;;;;30.99;42.83;95704.13;5097143;28;20235;-66
2022/08/11 10:04:23;;;;;;;1999.90;999.90;;;;;;;30.80;43.00;95713.84;5097614;28;20183;-64
2022/08/11 10:07:04;;;;;;;1999.90;999.90;;;;;;;29.77;44.07;95708.50;5097044;28;20191;-68
2022/08/11 10:09:44;;;;;;;1999.90;999.90;;;;;;;30.40;43.69;95701.38;5097148;28;20202;-67
2022/08/11 10:12:13;;;;;;;1999.90;999.90;;;;;;;28.84;45.86;95696.31;5096795;28;20183;-66
2022/08/11 10:18:40;;;;;;;1999.90;999.90;;;;;;;29.70;44.05;95706.22;5115492;28;20186;-62
2022/08/11 10:20:27;;;;;;;1999.90;999.90;;;;;;;29.90;43.80;95694.59;5115078;28;20202;-66
2022/08/11 10:28:41;;;;;;;1999.90;999.90;;;;;;;30.80;41.86;95675.09;5115449;28;20283;-67
2022/08/11 10:33:59;;;;;;;1999.90;999.90;;;;;;;30.00;43.10;95668.38;5114641;28;20186;-65
2022/08/11 10:36:26;;;;;;;1999.90;999.90;;;;;;;30.74;42.33;95671.56;5096558;28;20207;-71
2022/08/11 10:38:53;;;;;;;1999.90;999.90;;;;;;;30.89;41.31;95671.16;5096225;28;20218;-65
2022/08/11 10:44:06;;;;;;;1999.90;999.90;;;;;;;29.49;43.74;95676.91;5115116;28;20213;-62
2022/08/11 10:49:17;;;;;;;1999.90;999.90;;;;;;;29.50;45.24;95661.53;5115056;28;20186;-64
2022/08/11 11:00:00;;;;;;;1999.90;999.90;;;;;;;30.54;42.22;95662.78;5114924;28;20237;-63
2022/08/11 11:02:27;;;;;;;1999.90;999.90;;;;;;;30.16;43.70;95658.28;5096380;28;20203;-65
2022/08/11 11:05:20;;;;;;;1999.90;999.90;;;;;;;30.48;42.80;95648.72;5096367;28;20180;-64
2022/08/11 11:07:59;;;;;;;1999.90;999.90;;;;;;;28.33;46.94;95662.41;5096385;28;20229;-64
2022/08/11 11:10:24;;;;;;;1999.90;999.90;;;;;;;28.72;48.16;95644.19;5114462;28;20195;-73
2022/08/11 11:18:34;;;;;;;1999.90;999.90;;;;;;;30.70;43.99;95647.75;5114501;28;20214;-67
2022/08/11 11:21:13;;;;;;;1999.90;999.90;;;;;;;30.16;43.28;95672.38;5096454;28;20176;-66
2022/08/11 11:24:00;;;;;;;1999.90;999.90;;;;;;;29.63;45.10;95642.00;5096202;28;20211;-66
2022/08/11 11:26:33;;;;;;;1999.90;999.90;;;;;;;30.35;43.63;95645.03;5096097;28;20218;-65
2022/08/11 11:29:32;;;;;;;1999.90;999.90;;;;;;;30.18;42.67;95647.22;5096189;28;20224;-67
2022/08/11 11:32:10;;;;;;;1999.90;999.90;;;;;;;31.23;40.98;95643.28;5096102;28;20179;-68
2022/08/11 11:35:16;;;;;;;1999.90;999.90;;;;;;;30.34;41.70;95644.25;5095990;28;20198;-65
2022/08/11 11:37:44;;;;;;;1999.90;999.90;;;;;;;29.38;44.47;95660.81;5096429;28;20192;-63
2022/08/11 11:40:16;;;;;;;1999.90;999.90;;;;;;;29.10;44.67;95651.00;5096054;28;20187;-69
2022/08/11 11:42:44;;;;;;;1999.90;999.90;;;;;;;29.93;43.54;95637.19;5113674;28;20199;-67
2022/08/11 11:45:14;;;;;;;1999.90;999.90;;;;;;;29.47;44.25;95629.56;5095774;28;20191;-66
2022/08/11 11:47:40;;;;;;;1999.90;999.90;;;;;;;28.33;47.17;95628.69;5099263;28;20187;-61
2022/08/11 11:50:07;;;;;;;1999.90;999.90;;;;;;;28.14;48.28;95640.47;5099665;28;20180;-66
2022/08/11 11:52:33;;;;;;;1999.90;999.90;;;;;;;28.13;49.16;95624.88;5099591;28;20325;-65
2022/08/11 11:55:01;;;;;;;1999.90;999.90;;;;;;;27.21;51.31;95643.91;5099485;28;20211;-72
2022/08/11 12:03:01;;;;;;;1999.90;999.90;;;;;;;26.80;53.05;95637.09;5117418;28;20199;-64
2022/08/11 12:05:27;;;;;;;1999.90;999.90;;;;;;;26.86;53.40;95623.88;5117072;28;20180;-66
2022/08/11 12:10:43;;;;;;;1999.90;999.90;;;;;;;26.99;52.11;95626.97;5117689;28;20198;-61
2022/08/11 12:15:54;;;;;;;1999.90;999.90;;;;;;;26.45;53.25;95625.47;5117501;28;20191;-59
2022/08/11 12:18:20;;;;;;;1999.90;999.90;;;;;;;26.91;53.79;95628.75;5098924;28;20184;-60
2022/08/11 12:20:45;;;;;;;1999.90;999.90;;;;;;;26.72;53.81;95616.44;5098613;28;20187;-60
2022/08/11 12:28:43;;;;;;;1999.90;999.90;;;;;;;26.45;53.11;95605.84;5117550;28;20195;-61
2022/08/11 12:31:09;;;;;;;1999.90;999.90;;;;;;;26.72;52.31;95613.63;5098824;28;20183;-61
2022/08/11 12:33:36;;;;;;;1999.90;999.90;;;;;;;27.07;51.53;95610.44;5098536;28;20187;-61
2022/08/11 12:36:02;;;;;;;1999.90;999.90;;;;;;;26.76;52.54;95604.97;5098685;28;20239;-62
2022/08/11 12:38:29;;;;;;;1999.90;999.90;;;;;;;26.94;50.87;95605.31;5098550;28;20287;-63
2022/08/11 12:46:34;;;;;;;1999.90;999.90;;;;;;;27.14;50.84;95601.53;5117249;28;20199;-70
2022/08/11 12:52:03;;;;;;;1999.90;999.90;;;;;;;26.61;52.14;95579.94;5116897;28;20249;-67
2022/08/11 12:55:00;;;;;;;1999.90;999.90;;;;;;;26.69;51.34;95580.25;5098046;28;20186;-69
2022/08/11 13:06:01;;;;;;;1999.90;999.90;;;;;;;27.33;47.81;95578.16;5116830;28;20199;-64
2022/08/11 13:08:28;;;;;;;1999.90;999.90;;;;;;;27.33;48.44;95580.94;5098007;28;20191;-65
2022/08/11 13:13:43;;;;;;;1999.90;999.90;;;;;;;28.01;46.82;95575.59;5116857;28;20264;-65
2022/08/11 13:16:09;;;;;;;1999.90;999.90;;;;;;;27.89;46.16;95574.09;5097712;28;20195;-66
2022/08/11 13:18:38;;;;;;;1999.90;999.90;;;;;;;27.70;46.84;95573.06;5097943;28;20226;-65
2022/08/11 13:21:04;;;;;;;1999.90;999.90;;;;;;;27.34;47.29;95574.06;5098163;28;20180;-61
2022/08/11 13:23:30;;;;;;;1999.90;999.90;;;;;;;27.55;47.23;95578.16;5098034;28;20215;-64
2022/08/11 13:25:56;;;;;;;1999.90;999.90;;;;;;;27.86;46.68;95575.09;5098017;28;20199;-64
2022/08/11 13:28:22;;;;;;;1999.90;999.90;;;;;;;27.12;48.64;95576.03;5098129;28;20276;-64
2022/08/11 13:33:52;;;;;;;1999.90;999.90;;;;;;;27.47;48.21;95565.13;5116307;28;20190;-62
2022/08/11 13:36:20;;;;;;;1999.90;999.90;;;;;;;27.51;48.12;95566.41;5098046;28;20274;-62
2022/08/11 13:38:47;;;;;;;1999.90;999.90;;;;;;;27.74;46.76;95576.38;5097940;28;20191;-64
2022/08/11 13:43:57;;;;;;;1999.90;999.90;;;;;;;27.93;46.59;95568.19;5116282;28;20241;-63
2022/08/11 13:46:26;;;;;;;1999.90;999.90;;;;;;;27.48;46.40;95569.47;5097495;28;20194;-62
2022/08/11 13:48:53;;;;;;;1999.90;999.90;;;;;;;27.86;46.96;95563.88;5097505;28;20172;-64
2022/08/11 13:51:32;;;;;;;1999.90;999.90;;;;;;;28.02;46.54;95557.47;5115795;28;20184;-65
2022/08/11 13:54:00;;;;;;;1999.90;999.90;;;;;;;28.24;44.73;95562.28;5097676;28;20203;-63
2022/08/11 13:56:27;;;;;;;1999.90;999.90;;;;;;;27.67;45.39;95568.44;5097756;28;20183;-66
2022/08/11 13:58:54;;;;;;;1999.90;999.90;;;;;;;27.65;45.64;95571.00;5097691;28;20280;-63
2022/08/11 14:01:23;;;;;;;1999.90;999.90;;;;;;;27.87;45.88;95565.38;5097025;28;20204;-63
2022/08/11 14:03:49;;;;;;;1999.90;999.90;;;;;;;27.58;44.99;95563.09;5097499;28;20176;-63
2022/08/11 14:06:18;;;;;;;1999.90;999.90;;;;;;;27.61;45.68;95559.25;5096953;28;20172;-63
2022/08/11 14:08:44;;;;;;;1999.90;999.90;;;;;;;27.26;46.69;95555.41;5096180;28;20252;-64
2022/08/11 14:13:57;;;;;;;1999.90;999.90;;;;;;;27.63;46.05;95556.72;5115689;28;20194;-63
2022/08/11 14:16:31;;;;;;;1999.90;999.90;;;;;;;27.26;47.59;95577.88;5097129;28;20206;-64
2022/08/11 14:19:03;;;;;;;1999.90;999.90;;;;;;;27.27;47.11;95557.72;5097021;28;20184;-68
2022/08/11 14:24:20;;;;;;;1999.90;999.90;;;;;;;26.93;46.99;95556.09;5115104;28;20194;-69
2022/08/11 14:26:49;;;;;;;1999.90;999.90;;;;;;;27.15;46.69;95555.38;5096834;28;20190;-68
2022/08/11 14:29:18;;;;;;;1999.90;999.90;;;;;;;26.87;46.95;95558.13;5096677;28;20271;-70
2022/08/11 14:31:46;;;;;;;1999.90;999.90;;;;;;;27.11;47.36;95550.03;5096589;28;20186;-67
2022/08/11 14:34:13;;;;;;;1999.90;999.90;;;;;;;26.90;47.44;95551.50;5096638;28;20188;-67
2022/08/11 14:36:43;;;;;;;1999.90;999.90;;;;;;;26.88;46.83;95551.22;5096983;28;20188;-64
2022/08/11 14:39:16;;;;;;;1999.90;999.90;;;;;;;26.94;46.87;95552.03;5096359;28;20188;-66
2022/08/11 14:47:26;;;;;;;1999.90;999.90;;;;;;;27.65;46.18;95542.16;5114798;28;20206;-65
2022/08/11 14:49:54;;;;;;;1999.90;999.90;;;;;;;27.65;44.96;95548.53;5096610;28;20180;-66
2022/08/11 14:52:20;;;;;;;1999.90;999.90;;;;;;;27.71;44.58;95546.50;5097144;28;20192;-64
2022/08/11 14:57:35;;;;;;;1999.90;999.90;;;;;;;27.33;43.94;95550.09;5114887;28;20209;-60
2022/08/11 15:00:03;;;;;;;1999.90;999.90;;;;;;;27.54;44.38;95536.56;5097119;28;20184;-61
2022/08/11 15:05:15;;;;;;;1999.90;999.90;;;;;;;27.76;43.83;95540.09;5114650;28;20224;-61
2022/08/11 15:07:40;;;;;;;1999.90;999.90;;;;;;;27.56;43.58;95539.59;5096595;28;20202;-61
2022/08/11 15:10:08;;;;;;;1999.90;999.90;;;;;;;27.37;43.27;95550.59;5096413;28;20200;-63
2022/08/11 15:12:35;;;;;;;1999.90;999.90;;;;;;;27.63;43.68;95539.88;5096309;28;20179;-64
2022/08/11 15:17:50;;;;;;;1999.90;999.90;;;;;;;27.24;44.42;95541.91;5114580;28;20190;-63
2022/08/11 15:25:54;;;;;;;1999.90;999.90;;;;;;;27.63;43.17;95539.88;5114515;28;20257;-64
2022/08/11 15:48:09;;;;;;;1999.90;999.90;;;;;;;26.92;43.37;95537.75;5113768;28;20261;-65
2022/08/11 15:50:39;;;;;;;1999.90;999.90;;;;;;;26.55;44.12;95530.72;5095495;28;20183;-59
2022/08/11 15:53:15;;;;;;;1999.90;999.90;;;;;;;26.78;43.61;95527.53;5113778;28;20184;-61
2022/08/11 15:55:42;;;;;;;1999.90;999.90;;;;;;;26.58;44.52;95519.28;5095708;28;20183;-61